createdAt,value
2024-02-06T00:02:07.404Z,95079.94
2024-02-06T00:04:37.246Z,95076.31
2024-02-06T00:07:07.333Z,95071.00
2024-02-06T00:09:38.923Z,95064.81
2024-02-06T00:12:08.049Z,95066.63
2024-02-06T00:14:35.475Z,95061.75
2024-02-06T00:17:02.463Z,95059.31
2024-02-06T00:19:29.313Z,95060.78
2024-02-06T00:21:56.485Z,95059.84
2024-02-06T00:24:23.372Z,95061.41
2024-02-06T00:26:51.112Z,95055.91
2024-02-06T00:29:18.938Z,95057.38
2024-02-06T00:31:46.059Z,95043.41
2024-02-06T00:34:13.018Z,95047.19
2024-02-06T00:36:40.421Z,95044.47
2024-02-06T00:39:07.266Z,95044.38
2024-02-06T00:41:41.382Z,95048.97
2024-02-06T00:44:10.160Z,95036.44
2024-02-06T00:46:39.884Z,95042.38
2024-02-06T00:49:09.923Z,95040.66
2024-02-06T00:51:40.006Z,95034.13
2024-02-06T00:54:07.214Z,95041.38
2024-02-06T00:56:36.881Z,95043.41
2024-02-06T00:59:04.726Z,95044.00
2024-02-06T01:01:32.439Z,95040.44
2024-02-06T01:03:59.424Z,95037.09
2024-02-06T01:06:27.168Z,95035.16
2024-02-06T01:08:54.331Z,95029.66
2024-02-06T01:11:23.958Z,95025.88
2024-02-06T01:14:00.755Z,95025.59
2024-02-06T01:16:30.561Z,95027.00
2024-02-06T01:18:58.870Z,95034.38
2024-02-06T01:21:25.788Z,95034.38
2024-02-06T01:23:52.649Z,95030.56
2024-02-06T01:26:30.811Z,95025.69
2024-02-06T01:28:57.828Z,95027.72
2024-02-06T01:31:27.516Z,95025.22
2024-02-06T01:33:59.623Z,95025.69
2024-02-06T01:36:28.061Z,95025.50
2024-02-06T01:38:55.171Z,95017.19
2024-02-06T01:41:23.192Z,95014.75
2024-02-06T01:43:50.107Z,95011.22
2024-02-06T01:46:17.048Z,95012.31
2024-02-06T01:48:44.968Z,95003.19
2024-02-06T01:51:13.587Z,95006.94
2024-02-06T01:53:41.811Z,95003.50
2024-02-06T01:56:08.685Z,95000.38
2024-02-06T01:58:35.872Z,95009.28
2024-02-06T02:01:04.967Z,95007.47
2024-02-06T02:03:35.938Z,95010.19
2024-02-06T02:06:05.787Z,95017.97
2024-02-06T02:08:34.616Z,95007.78
2024-02-06T02:11:04.398Z,95002.13
2024-02-06T02:13:35.694Z,95001.59
2024-02-06T02:16:02.960Z,95008.22
2024-02-06T02:18:37.868Z,94995.16
2024-02-06T02:21:16.927Z,94994.47
2024-02-06T02:23:47.158Z,94990.75
2024-02-06T02:26:16.700Z,94987.69
2024-02-06T02:28:46.382Z,94980.50
2024-02-06T02:31:13.566Z,94977.16
2024-02-06T02:33:40.438Z,94982.38
2024-02-06T02:36:08.721Z,94979.25
2024-02-06T02:38:38.697Z,94980.31
2024-02-06T02:41:06.106Z,94963.03
2024-02-06T02:43:33.504Z,94977.72
2024-02-06T02:46:01.265Z,94976.84
2024-02-06T02:48:28.691Z,94969.09
2024-02-06T02:50:55.618Z,94958.22
2024-02-06T02:53:25.524Z,94954.59
2024-02-06T02:55:52.652Z,94962.44
2024-02-06T02:58:19.731Z,94963.38
2024-02-06T03:00:47.127Z,94954.94
2024-02-06T03:03:14.022Z,94951.84
2024-02-06T03:05:40.858Z,94928.44
2024-02-06T03:08:07.929Z,94932.06
2024-02-06T03:10:34.828Z,94934.84
2024-02-06T03:13:02.103Z,94930.03
2024-02-06T03:15:29.438Z,94924.00
2024-02-06T03:17:58.608Z,94928.03
2024-02-06T03:20:25.782Z,94912.56
2024-02-06T03:22:52.992Z,94904.69
2024-02-06T03:25:20.311Z,94910.03
2024-02-06T03:27:48.168Z,94910.56
2024-02-06T03:30:15.241Z,94913.41
2024-02-06T03:32:43.513Z,94911.72
2024-02-06T03:35:11.145Z,94909.78
2024-02-06T03:37:38.584Z,94908.22
2024-02-06T03:40:07.886Z,94921.41
2024-02-06T03:42:34.762Z,94915.22
2024-02-06T03:45:01.619Z,94909.97
2024-02-06T03:47:31.244Z,94909.06
2024-02-06T03:49:58.185Z,94904.84
2024-02-06T03:52:25.441Z,94905.31
2024-02-06T03:54:52.308Z,94902.19
2024-02-06T03:57:21.430Z,94904.09
2024-02-06T03:59:48.911Z,94907.84
2024-02-06T04:02:20.082Z,94901.84
2024-02-06T04:04:46.958Z,94894.53
2024-02-06T04:07:14.558Z,94901.69
2024-02-06T04:09:41.433Z,94901.88
2024-02-06T04:12:08.893Z,94889.25
2024-02-06T04:14:44.369Z,94889.78
2024-02-06T04:17:11.589Z,94888.03
2024-02-06T04:19:38.801Z,94897.84
2024-02-06T04:22:06.153Z,94888.56
2024-02-06T04:24:34.371Z,94889.06
2024-02-06T04:27:01.264Z,94888.56
2024-02-06T04:29:29.018Z,94889.41
2024-02-06T04:31:56.184Z,94885.31
2024-02-06T04:34:23.239Z,94886.44
2024-02-06T04:36:50.444Z,94893.19
2024-02-06T04:39:17.243Z,94888.56
2024-02-06T04:41:44.418Z,94882.69
2024-02-06T04:44:12.029Z,94882.19
2024-02-06T04:46:41.931Z,94888.28
2024-02-06T04:49:10.146Z,94885.69
2024-02-06T04:51:38.183Z,94886.97
2024-02-06T04:54:06.788Z,94886.56
2024-02-06T04:56:36.438Z,94865.03
2024-02-06T04:59:03.816Z,94873.88
2024-02-06T05:01:31.497Z,94872.56
2024-02-06T05:04:07.126Z,94869.28
2024-02-06T05:06:34.457Z,94852.16
2024-02-06T05:09:02.665Z,94858.44
2024-02-06T05:11:30.454Z,94859.41
2024-02-06T05:13:57.337Z,94864.25
2024-02-06T05:16:24.634Z,94862.06
2024-02-06T05:18:54.363Z,94871.03
2024-02-06T05:21:22.501Z,94866.03
2024-02-06T05:23:49.583Z,94867.44
2024-02-06T05:26:16.374Z,94864.06
2024-02-06T05:28:48.146Z,94858.69
2024-02-06T05:31:15.591Z,94860.84
2024-02-06T05:33:43.562Z,94855.56
2024-02-06T05:36:10.619Z,94851.66
2024-02-06T05:38:37.404Z,94841.06
2024-02-06T05:41:05.039Z,94847.53
2024-02-06T05:43:32.271Z,94845.75
2024-02-06T05:46:02.039Z,94849.59
2024-02-06T05:48:31.642Z,94851.69
2024-02-06T05:51:00.262Z,94849.91
2024-02-06T05:53:31.622Z,94853.34
2024-02-06T05:55:59.462Z,94856.66
2024-02-06T05:58:28.231Z,94859.91
2024-02-06T06:00:58.195Z,94859.66
2024-02-06T06:03:26.737Z,94854.13
2024-02-06T06:05:54.190Z,94859.94
2024-02-06T06:08:24.108Z,94857.16
2024-02-06T06:10:53.702Z,94853.28
2024-02-06T06:13:25.900Z,94855.91
2024-02-06T06:15:53.233Z,94851.13
2024-02-06T06:18:20.126Z,94834.97
2024-02-06T06:20:47.404Z,94847.97
2024-02-06T06:23:14.601Z,94837.81
2024-02-06T06:25:41.684Z,94833.28
2024-02-06T06:28:09.561Z,94839.66
2024-02-06T06:30:36.855Z,94837.25
2024-02-06T06:33:04.833Z,94838.19
2024-02-06T06:35:32.232Z,94845.22
2024-02-06T06:37:59.356Z,94846.16
2024-02-06T06:40:26.339Z,94846.13
2024-02-06T06:42:54.635Z,94846.53
2024-02-06T06:45:22.797Z,94852.50
2024-02-06T06:47:51.970Z,94852.56
2024-02-06T06:50:23.878Z,94854.09
2024-02-06T06:52:53.753Z,94851.97
2024-02-06T06:55:21.276Z,94856.91
2024-02-06T06:57:48.357Z,94860.63
2024-02-06T07:00:45.897Z,94853.44
2024-02-06T07:03:13.044Z,94863.34
2024-02-06T07:05:42.880Z,94860.97
2024-02-06T07:08:10.162Z,94860.75
2024-02-06T07:10:37.312Z,94860.75
2024-02-06T07:13:05.519Z,94858.09
2024-02-06T07:15:32.335Z,94861.78
2024-02-06T07:18:00.620Z,94852.31
2024-02-06T07:20:28.490Z,94854.19
2024-02-06T07:25:46.787Z,94858.47
2024-02-06T07:28:14.207Z,94864.97
2024-02-06T07:30:42.336Z,94853.13
2024-02-06T07:33:11.119Z,94867.34
2024-02-06T07:35:38.518Z,94859.19
2024-02-06T07:38:08.604Z,94856.50
2024-02-06T07:40:37.545Z,94870.97
2024-02-06T07:43:05.201Z,94864.31
2024-02-06T07:45:35.974Z,94876.38
2024-02-06T07:48:05.720Z,94876.22
2024-02-06T07:50:33.148Z,94874.84
2024-02-06T07:53:02.930Z,94877.69
2024-02-06T07:55:30.219Z,94873.56
2024-02-06T07:57:57.468Z,94874.38
2024-02-06T08:00:24.662Z,94870.25
2024-02-06T08:02:54.510Z,94877.97
2024-02-06T08:05:21.767Z,94869.38
2024-02-06T08:07:49.748Z,94877.28
2024-02-06T08:10:17.409Z,94875.25
2024-02-06T08:12:44.872Z,94876.50
2024-02-06T08:15:16.798Z,94877.19
2024-02-06T08:17:44.835Z,94872.19
2024-02-06T08:20:15.609Z,94877.41
2024-02-06T08:22:46.704Z,94882.44
2024-02-06T08:25:13.812Z,94890.69
2024-02-06T08:27:41.174Z,94892.50
2024-02-06T08:30:09.316Z,94889.47
2024-02-06T08:32:36.649Z,94890.06
2024-02-06T08:35:04.881Z,94895.94
2024-02-06T08:37:32.249Z,94893.88
2024-02-06T08:40:03.085Z,94890.13
2024-02-06T08:42:30.367Z,94888.34
2024-02-06T08:45:00.087Z,94883.97
2024-02-06T08:47:28.407Z,94886.66
2024-02-06T08:49:56.149Z,94889.28
2024-02-06T08:52:23.573Z,94891.06
2024-02-06T08:54:53.351Z,94887.19
2024-02-06T08:57:20.220Z,94884.25
2024-02-06T08:59:47.378Z,94891.41
2024-02-06T09:02:16.044Z,94891.41
2024-02-06T09:05:07.817Z,94892.88
2024-02-06T09:07:37.644Z,94897.19
2024-02-06T09:10:04.878Z,94893.59
2024-02-06T09:12:35.163Z,94888.50
2024-02-06T09:15:03.071Z,94892.53
2024-02-06T09:17:31.012Z,94894.88
2024-02-06T09:19:58.449Z,94893.09
2024-02-06T09:22:25.579Z,94885.25
2024-02-06T09:24:55.613Z,94888.69
2024-02-06T09:27:23.363Z,94886.09
2024-02-06T09:29:53.027Z,94878.56
2024-02-06T09:32:22.503Z,94887.72
2024-02-06T09:34:50.045Z,94902.41
2024-02-06T09:37:20.003Z,94907.03
2024-02-06T09:39:48.740Z,94902.00
2024-02-06T09:42:16.436Z,94906.19
2024-02-06T09:44:46.344Z,94904.78
2024-02-06T09:47:15.400Z,94906.75
2024-02-06T09:49:43.293Z,94907.44
2024-02-06T09:52:10.071Z,94898.81
2024-02-06T09:54:39.639Z,94903.31
2024-02-06T09:57:06.528Z,94895.50
2024-02-06T09:59:33.775Z,94902.94
2024-02-06T10:02:03.742Z,94905.78
2024-02-06T10:04:32.843Z,94894.66
2024-02-06T10:07:00.048Z,94901.25
2024-02-06T10:09:29.416Z,94912.69
2024-02-06T10:11:56.627Z,94902.00
2024-02-06T10:14:26.480Z,94906.41
2024-02-06T10:16:53.550Z,94907.72
2024-02-06T10:19:20.723Z,94907.44
2024-02-06T10:21:53.975Z,94905.28
2024-02-06T10:24:23.599Z,94912.66
2024-02-06T10:26:59.802Z,94906.28
2024-02-06T10:29:30.691Z,94906.88
2024-02-06T10:31:58.484Z,94911.66
2024-02-06T10:35:11.595Z,94915.09
2024-02-06T10:37:40.188Z,94918.59
2024-02-06T10:40:11.342Z,94905.41
2024-02-06T10:43:12.712Z,94911.81
2024-02-06T10:45:32.008Z,94908.66
2024-02-06T10:48:01.752Z,94902.19
2024-02-06T10:50:29.503Z,94900.22
2024-02-06T10:52:59.357Z,94900.91
2024-02-06T10:55:27.301Z,94892.47
2024-02-06T10:58:07.351Z,94889.66
2024-02-06T11:00:42.289Z,94890.28
2024-02-06T11:03:11.640Z,94883.78
2024-02-06T11:05:58.572Z,94876.81
2024-02-06T11:08:44.343Z,94866.94
2024-02-06T11:11:15.816Z,94867.53
2024-02-06T11:13:49.758Z,94864.34
2024-02-06T11:16:23.086Z,94854.13
2024-02-06T11:19:04.318Z,94855.72
2024-02-06T11:21:38.100Z,94851.81
2024-02-06T11:24:05.510Z,94852.06
2024-02-06T11:26:32.266Z,94845.34
2024-02-06T11:29:00.586Z,94839.25
2024-02-06T11:31:28.979Z,94833.34
2024-02-06T11:33:55.951Z,94832.91
2024-02-06T11:36:28.779Z,94828.00
2024-02-06T11:39:05.555Z,94824.41
2024-02-06T11:41:35.329Z,94817.75
2024-02-06T11:44:15.772Z,94820.84
2024-02-06T11:46:51.112Z,94819.75
2024-02-06T11:49:25.904Z,94817.16
2024-02-06T11:51:53.977Z,94818.53
2024-02-06T11:54:22.454Z,94819.13
2024-02-06T11:56:50.143Z,94817.69
2024-02-06T11:59:21.045Z,94814.00
2024-02-06T12:01:48.633Z,94809.84
2024-02-06T12:08:32.915Z,94802.66
2024-02-06T12:11:04.553Z,94794.97
2024-02-06T12:14:10.470Z,94798.13
2024-02-06T12:16:37.605Z,94790.06
2024-02-06T12:19:04.760Z,94784.94
2024-02-06T12:21:43.213Z,94771.38
2024-02-06T12:24:10.478Z,94772.88
2024-02-06T12:26:42.260Z,94775.59
2024-02-06T12:29:15.163Z,94769.69
2024-02-06T12:31:44.904Z,94770.38
2024-02-06T12:34:15.205Z,94758.13
2024-02-06T12:36:42.545Z,94759.84
2024-02-06T12:39:10.442Z,94757.56
2024-02-06T12:41:37.656Z,94750.66
2024-02-06T12:44:10.629Z,94741.84
2024-02-06T12:46:44.087Z,94746.72
2024-02-06T12:49:12.009Z,94736.88
2024-02-06T12:51:41.876Z,94728.97
2024-02-06T12:54:11.865Z,94732.34
2024-02-06T12:56:39.810Z,94721.75
2024-02-06T12:59:16.512Z,94719.41
2024-02-06T13:01:53.719Z,94717.38
2024-02-06T13:04:34.083Z,94714.34
2024-02-06T13:10:01.468Z,94717.16
2024-02-06T13:12:28.809Z,94715.38
2024-02-06T13:15:19.020Z,94717.84
2024-02-06T13:17:47.432Z,94707.91
2024-02-06T13:20:16.256Z,94712.97
2024-02-06T13:22:48.139Z,94708.97
2024-02-06T13:25:15.441Z,94695.81
2024-02-06T13:27:42.694Z,94701.81
2024-02-06T13:30:12.051Z,94697.25
2024-02-06T13:32:44.524Z,94691.97
2024-02-06T13:37:55.601Z,94685.97
2024-02-06T13:40:23.388Z,94688.94
2024-02-06T13:42:50.508Z,94683.81
2024-02-06T13:45:18.110Z,94676.09
2024-02-06T13:47:47.951Z,94679.03
2024-02-06T13:50:15.630Z,94684.84
2024-02-06T13:52:55.880Z,94678.41
2024-02-06T13:55:25.555Z,94673.47
2024-02-06T13:57:55.478Z,94671.59
2024-02-06T14:00:26.598Z,94667.41
2024-02-06T14:06:38.405Z,94657.66
2024-02-06T14:09:05.978Z,94670.56
2024-02-06T14:11:35.716Z,94667.34
2024-02-06T14:14:04.142Z,94656.44
2024-02-06T14:16:31.374Z,94658.41
2024-02-06T14:18:58.709Z,94654.53
2024-02-06T14:21:26.057Z,94655.13
2024-02-06T14:23:53.067Z,94651.53
2024-02-06T14:26:20.322Z,94655.34
2024-02-06T14:28:47.553Z,94650.66
2024-02-06T14:31:19.168Z,94653.91
2024-02-06T14:34:28.058Z,94648.25
2024-02-06T14:36:56.561Z,94652.66
2024-02-06T14:39:24.228Z,94654.94
2024-02-06T14:41:52.572Z,94657.28
2024-02-06T14:44:20.648Z,94653.16
2024-02-06T14:46:47.903Z,94641.47
2024-02-06T14:49:15.101Z,94643.34
2024-02-06T14:51:44.056Z,94634.81
2024-02-06T14:54:11.244Z,94639.56
2024-02-06T14:56:43.719Z,94633.31
2024-02-06T14:59:12.327Z,94638.97
2024-02-06T15:01:44.587Z,94619.59
2024-02-06T15:04:16.343Z,94622.84
2024-02-06T15:06:49.159Z,94629.91
2024-02-06T15:09:17.160Z,94627.78
2024-02-06T15:11:47.057Z,94628.91
2024-02-06T15:14:15.009Z,94632.84
2024-02-06T15:16:42.596Z,94627.72
2024-02-06T15:19:10.068Z,94636.91
2024-02-06T15:21:37.734Z,94628.56
2024-02-06T15:24:07.490Z,94626.09
2024-02-06T15:26:34.664Z,94632.53
2024-02-06T15:29:19.444Z,94623.03
2024-02-06T15:31:52.185Z,94618.94
2024-02-06T15:34:20.395Z,94617.69
2024-02-06T15:36:52.365Z,94615.13
2024-02-06T15:39:25.797Z,94611.31
2024-02-06T15:41:53.345Z,94623.47
2024-02-06T15:44:20.600Z,94619.72
2024-02-06T15:46:47.866Z,94625.59
2024-02-06T15:49:17.968Z,94619.81
2024-02-06T15:51:49.921Z,94627.25
2024-02-06T15:54:17.356Z,94616.34
2024-02-06T15:56:45.031Z,94621.78
2024-02-06T15:59:12.318Z,94620.03
2024-02-06T16:01:45.735Z,94621.47
2024-02-06T16:04:14.000Z,94630.78
2024-02-06T16:06:43.813Z,94623.34
2024-02-06T16:09:11.289Z,94628.75
2024-02-06T16:11:51.366Z,94622.94
2024-02-06T16:14:20.093Z,94624.84
2024-02-06T16:16:47.042Z,94624.72
2024-02-06T16:19:22.499Z,94612.78
2024-02-06T16:21:58.353Z,94608.09
2024-02-06T16:24:27.527Z,94605.78
2024-02-06T16:26:54.799Z,94613.69
2024-02-06T16:29:26.809Z,94615.25
2024-02-06T16:31:54.282Z,94620.22
2024-02-06T16:34:37.264Z,94622.06
2024-02-06T16:37:07.884Z,94629.53
2024-02-06T16:39:35.473Z,94619.91
2024-02-06T16:42:02.668Z,94632.34
2024-02-06T16:44:32.287Z,94633.28
2024-02-06T16:46:59.392Z,94625.97
2024-02-06T16:49:26.891Z,94623.78
2024-02-06T16:51:56.084Z,94638.00
2024-02-06T16:54:24.293Z,94635.09
2024-02-06T16:56:51.160Z,94630.69
2024-02-06T16:59:18.651Z,94623.63
2024-02-06T17:01:46.357Z,94628.25
2024-02-06T17:04:13.586Z,94620.69
2024-02-06T17:06:43.852Z,94628.06
2024-02-06T17:09:11.594Z,94628.22
2024-02-06T17:11:48.034Z,94626.41
2024-02-06T17:14:34.704Z,94628.59
2024-02-06T17:17:02.588Z,94632.75
2024-02-06T17:19:34.786Z,94641.69
2024-02-06T17:22:02.082Z,94644.81
2024-02-06T17:24:34.301Z,94639.09
2024-02-06T17:27:01.602Z,94647.00
2024-02-06T17:29:29.853Z,94650.41
2024-02-06T17:32:03.142Z,94645.34
2024-02-06T17:34:30.476Z,94641.81
2024-02-06T17:37:00.793Z,94643.72
2024-02-06T17:39:27.691Z,94648.75
2024-02-06T17:41:54.893Z,94651.53
2024-02-06T17:44:22.796Z,94648.66
2024-02-06T17:46:50.418Z,94648.09
2024-02-06T17:49:22.699Z,94647.81
2024-02-06T17:51:56.731Z,94661.63
2024-02-06T17:54:27.768Z,94666.91
2024-02-06T17:56:55.635Z,94670.34
2024-02-06T17:59:22.795Z,94669.53
2024-02-06T18:01:50.540Z,94679.53
2024-02-06T18:04:17.823Z,94679.66
2024-02-06T18:06:45.306Z,94683.75
2024-02-06T18:09:18.351Z,94669.53
2024-02-06T18:11:45.611Z,94669.13
2024-02-06T18:14:13.404Z,94662.84
2024-02-06T18:16:40.696Z,94675.00
2024-02-06T18:19:07.890Z,94676.47
2024-02-06T18:21:36.490Z,94674.91
2024-02-06T18:24:09.579Z,94674.25
2024-02-06T18:26:41.262Z,94671.16
2024-02-06T18:29:09.175Z,94673.84
2024-02-06T18:31:39.086Z,94673.72
2024-02-06T18:34:11.231Z,94677.88
2024-02-06T18:36:41.163Z,94673.84
2024-02-06T18:39:09.088Z,94662.72
2024-02-06T18:41:38.966Z,94663.84
2024-02-06T18:44:07.073Z,94667.38
2024-02-06T18:46:40.861Z,94674.19
2024-02-06T18:49:07.880Z,94667.59
2024-02-06T18:51:39.620Z,94668.56
2024-02-06T18:54:07.504Z,94669.22
2024-02-06T18:56:34.873Z,94667.50
2024-02-06T18:59:01.706Z,94679.59
2024-02-06T19:01:30.180Z,94663.25
2024-02-06T19:04:00.017Z,94669.28
2024-02-06T19:06:27.333Z,94670.34
2024-02-06T19:08:57.146Z,94667.22
2024-02-06T19:11:24.433Z,94669.50
2024-02-06T19:13:52.253Z,94666.69
2024-02-06T19:16:21.919Z,94672.44
2024-02-06T19:18:49.288Z,94668.09
2024-02-06T19:21:16.588Z,94658.88
2024-02-06T19:23:43.641Z,94669.00
2024-02-06T19:26:13.298Z,94665.78
2024-02-06T19:28:40.843Z,94664.19
2024-02-06T19:31:08.004Z,94664.97
2024-02-06T19:33:39.407Z,94666.88
2024-02-06T19:36:06.531Z,94678.06
2024-02-06T19:38:33.554Z,94676.94
2024-02-06T19:41:03.341Z,94679.56
2024-02-06T19:43:33.525Z,94682.72
2024-02-06T19:46:00.784Z,94677.59
2024-02-06T19:48:34.417Z,94684.69
2024-02-06T19:51:05.263Z,94681.81
2024-02-06T19:53:34.918Z,94695.97
2024-02-06T19:56:02.092Z,94694.00
2024-02-06T19:58:29.170Z,94695.78
2024-02-06T20:00:56.410Z,94684.03
2024-02-06T20:03:23.630Z,94690.81
2024-02-06T20:05:51.073Z,94691.69
2024-02-06T20:08:18.558Z,94693.44
2024-02-06T20:10:45.783Z,94688.44
2024-02-06T20:13:13.343Z,94688.19
2024-02-06T20:15:42.650Z,94699.84
2024-02-06T20:18:17.471Z,94689.38
2024-02-06T20:20:47.035Z,94697.38
2024-02-06T20:23:14.486Z,94689.03
2024-02-06T20:25:44.345Z,94703.94
2024-02-06T20:28:11.561Z,94697.63
2024-02-06T20:30:39.554Z,94691.09
2024-02-06T20:33:08.225Z,94696.06
2024-02-06T20:35:38.524Z,94694.47
2024-02-06T20:38:05.869Z,94703.00
2024-02-06T20:40:32.954Z,94702.19
2024-02-06T20:43:00.684Z,94703.91
2024-02-06T20:45:28.734Z,94707.81
2024-02-06T20:51:35.328Z,94708.53
2024-02-06T20:54:04.925Z,94715.44
2024-02-06T20:56:32.199Z,94713.13
2024-02-06T20:59:01.857Z,94718.69
2024-02-06T21:01:29.019Z,94720.97
2024-02-06T21:03:57.381Z,94719.72
2024-02-06T21:06:24.824Z,94710.78
2024-02-06T21:08:51.905Z,94717.03
2024-02-06T21:11:19.651Z,94721.03
2024-02-06T21:14:27.198Z,94730.50
2024-02-06T21:16:54.772Z,94720.00
2024-02-06T21:19:22.322Z,94718.72
2024-02-06T21:21:49.608Z,94723.97
2024-02-06T21:24:16.658Z,94720.53
2024-02-06T21:26:43.941Z,94722.19
2024-02-06T21:29:13.175Z,94723.72
2024-02-06T21:31:40.721Z,94721.97
2024-02-06T21:34:09.206Z,94727.13
2024-02-06T21:36:42.469Z,94721.66
2024-02-06T21:39:09.622Z,94724.22
2024-02-06T21:41:36.819Z,94717.84
2024-02-06T21:44:04.061Z,94724.06
2024-02-06T21:46:37.101Z,94722.97
2024-02-06T21:49:30.007Z,94712.22
2024-02-06T21:51:57.230Z,94716.38
2024-02-06T21:54:26.820Z,94714.19
2024-02-06T21:56:54.064Z,94719.84
2024-02-06T21:59:21.252Z,94717.31
2024-02-06T22:01:48.883Z,94711.84
2024-02-06T22:04:18.690Z,94715.25
2024-02-06T22:06:51.031Z,94709.59
2024-02-06T22:12:42.725Z,94714.09
2024-02-06T22:15:09.742Z,94710.88
2024-02-06T22:17:37.881Z,94716.28
2024-02-06T22:20:06.867Z,94717.47
2024-02-06T22:22:34.171Z,94710.06
2024-02-06T22:25:01.550Z,94712.28
2024-02-06T22:27:28.895Z,94709.94
2024-02-06T22:29:57.148Z,94718.94
2024-02-06T22:32:24.360Z,94709.22
2024-02-06T22:34:51.542Z,94707.75
2024-02-06T22:37:18.764Z,94702.22
2024-02-06T22:39:46.934Z,94709.59
2024-02-06T22:42:13.999Z,94699.84
2024-02-06T22:44:41.955Z,94703.69
2024-02-06T22:47:09.457Z,94697.00
2024-02-06T22:49:39.100Z,94690.84
2024-02-06T22:52:12.430Z,94691.88
2024-02-06T22:54:39.976Z,94696.34
2024-02-06T22:57:07.107Z,94694.56
2024-02-06T22:59:35.003Z,94699.97
2024-02-06T23:02:02.011Z,94696.84
2024-02-06T23:04:34.011Z,94699.25
2024-02-06T23:07:01.172Z,94697.66
2024-02-06T23:09:28.078Z,94704.03
2024-02-06T23:11:55.198Z,94700.44
2024-02-06T23:14:22.394Z,94700.28
2024-02-06T23:16:50.847Z,94699.09
2024-02-06T23:19:20.734Z,94705.50
2024-02-06T23:21:47.770Z,94701.31
2024-02-06T23:24:14.883Z,94699.44
2024-02-06T23:26:42.370Z,94696.81
2024-02-06T23:29:10.264Z,94698.22
2024-02-06T23:31:37.434Z,94698.19
2024-02-06T23:34:04.529Z,94700.38
2024-02-06T23:36:31.577Z,94695.97
2024-02-06T23:39:10.216Z,94695.00
2024-02-06T23:41:48.312Z,94690.22
2024-02-06T23:44:15.393Z,94681.66
2024-02-06T23:46:45.889Z,94677.59
2024-02-06T23:49:14.324Z,94674.22
2024-02-06T23:51:46.484Z,94672.44
2024-02-06T23:54:13.813Z,94677.06
2024-02-06T23:56:41.009Z,94669.09
2024-02-06T23:59:08.234Z,94667.44
